Time;durP1;ratioP1;P1;durP2;ratioP2;P2;SDS_P1;SDS_P2;PMS_P1;PMS_P2;Temp;Humidity;BMP_temperature;BMP_pressure;BME280_temperature;BME280_humidity;BME280_pressure;Samples;Min_cycle;Max_cycle;Signal;HPM_P1;HPM_P2
2022/11/27 00:03:08;;;;;;;230.27;52.27;;;;;;;3.39;100.00;102099.27;5109089;55;1143010;-68
2022/11/27 00:08:14;;;;;;;176.63;53.97;;;;;;;3.29;100.00;102096.45;5057038;56;1152710;-66
2022/11/27 00:13:19;;;;;;;176.20;52.07;;;;;;;3.22;100.00;102088.31;5056874;56;1142841;-63
2022/11/27 00:18:25;;;;;;;168.63;52.63;;;;;;;3.20;100.00;102091.44;5070442;56;1142836;-65
2022/11/27 00:23:31;;;;;;;137.00;49.83;;;;;;;3.16;100.00;102082.80;4982490;56;1143023;-68
2022/11/27 00:28:38;;;;;;;161.97;51.77;;;;;;;3.19;100.00;102081.88;4981988;57;1145122;-63
2022/11/27 00:33:43;;;;;;;191.17;54.10;;;;;;;3.20;100.00;102079.68;4981656;57;1145162;-66
2022/11/27 00:38:49;;;;;;;192.07;53.00;;;;;;;3.29;100.00;102087.30;4982311;57;1145077;-68
2022/11/27 00:43:55;;;;;;;209.40;59.70;;;;;;;3.32;100.00;102086.38;4982676;57;1143093;-64
2022/11/27 00:49:04;;;;;;;199.75;54.95;;;;;;;3.33;100.00;102087.66;4982579;57;1143068;-67
2022/11/27 00:54:11;;;;;;;211.62;54.18;;;;;;;3.34;100.00;102090.69;4883988;57;1143077;-67
2022/11/27 00:59:16;;;;;;;146.33;52.33;;;;;;;3.34;100.00;102095.05;5120779;56;1143285;-63
2022/11/27 01:04:22;;;;;;;128.90;43.37;;;;;;;3.34;100.00;102093.30;5108581;55;1154083;-66
2022/11/27 01:09:28;;;;;;;212.30;52.90;;;;;;;3.40;100.00;102089.66;5090531;56;1145170;-65
2022/11/27 01:14:34;;;;;;;207.53;50.40;;;;;;;3.49;100.00;102094.70;5090129;56;1145040;-63
2022/11/27 01:19:40;;;;;;;252.00;51.10;;;;;;;3.47;100.00;102097.35;5104919;56;1143226;-67
2022/11/27 01:24:45;;;;;;;193.00;47.40;;;;;;;3.46;100.00;102097.39;5037152;57;1143272;-66
2022/11/27 01:29:51;;;;;;;177.07;51.00;;;;;;;3.38;100.00;102103.22;5114169;56;1143004;-65
2022/11/27 01:34:57;;;;;;;153.73;43.63;;;;;;;3.40;100.00;102100.13;5095809;56;1142966;-65
2022/11/27 01:40:03;;;;;;;156.63;43.68;;;;;;;3.35;100.00;102103.31;5106267;56;1143015;-66
2022/11/27 01:45:12;;;;;;;112.97;40.87;;;;;;;3.33;100.00;102107.27;5121660;56;1143132;-63
2022/11/27 01:50:36;;;;;;;112.97;42.93;;;;;;;3.37;100.00;102091.90;5121215;56;1145171;-65
2022/11/27 01:55:44;;;;;;;;;;;;;;;3.49;100.00;102090.34;5124855;56;1145013;-65
2022/11/27 02:00:49;;;;;;;132.10;41.30;;;;;;;3.57;100.00;102082.30;5138562;55;976346;-69
2022/11/27 02:05:55;;;;;;;173.20;46.07;;;;;;;3.64;100.00;102092.17;5099514;56;1142915;-68
2022/11/27 02:11:17;;;;;;;230.53;43.93;;;;;;;3.64;100.00;102085.19;5091039;56;1147354;-63
2022/11/27 02:16:27;;;;;;;215.97;48.63;;;;;;;3.66;100.00;102088.63;5087447;56;1142906;-66
2022/11/27 02:21:58;;;;;;;165.63;44.67;;;;;;;3.54;100.00;102094.13;5116428;56;1143013;-67
2022/11/27 02:27:29;;;;;;;143.95;44.90;;;;;;;3.51;100.00;102096.36;5121322;56;1142985;-68
2022/11/27 02:32:59;;;;;;;131.77;41.53;;;;;;;3.50;100.00;102100.35;4950647;58;1143127;-64
2022/11/27 02:38:39;;;;;;;160.40;45.52;;;;;;;3.53;100.00;102092.41;5120970;56;1145220;-64
2022/11/27 02:43:48;;;;;;;164.17;43.43;;;;;;;3.51;100.00;102092.44;5120954;56;1144890;-64
2022/11/27 02:49:01;;;;;;;172.23;42.77;;;;;;;3.51;100.00;102088.52;5120612;56;1144977;-65
2022/11/27 02:54:11;;;;;;;146.15;45.05;;;;;;;3.53;100.00;102087.17;5119792;55;1145185;-66
2022/11/27 02:59:18;;;;;;;199.70;44.65;;;;;;;3.59;100.00;102088.80;5121049;56;1145203;-67
2022/11/27 03:04:33;;;;;;;228.93;46.53;;;;;;;3.61;100.00;102082.64;5092748;56;1142986;-69
2022/11/27 03:09:43;;;;;;;173.50;44.13;;;;;;;3.56;100.00;102081.88;5057042;56;1143240;-67
2022/11/27 03:14:49;;;;;;;151.03;41.67;;;;;;;3.52;100.00;102081.53;5057174;56;1142980;-65
2022/11/27 03:20:20;;;;;;;141.97;41.98;;;;;;;3.48;100.00;102083.83;5089640;56;1143238;-65
2022/11/27 03:25:26;;;;;;;147.13;42.70;;;;;;;3.49;100.00;102081.19;5119038;56;1143232;-67
2022/11/27 03:30:32;;;;;;;147.63;40.03;;;;;;;3.51;100.00;102077.22;4982093;57;1145139;-66
2022/11/27 03:35:38;;;;;;;179.50;42.93;;;;;;;3.55;100.00;102077.55;4902134;57;1145055;-67
2022/11/27 03:40:57;;;;;;;222.90;45.27;;;;;;;3.59;100.00;102076.58;4982446;57;1143471;-67
2022/11/27 03:46:08;;;;;;;145.47;38.40;;;;;;;3.58;100.00;102072.24;4907928;57;1143194;-68
2022/11/27 03:51:33;;;;;;;100.47;35.75;;;;;;;3.57;100.00;102067.91;4901137;57;1143189;-64
2022/11/27 03:56:59;;;;;;;100.10;34.97;;;;;;;3.54;100.00;102058.81;4902532;57;1145018;-66
2022/11/27 04:02:04;;;;;;;150.68;36.38;;;;;;;3.53;100.00;102057.09;4999213;56;1145234;-66
2022/11/27 04:07:16;;;;;;;159.70;38.53;;;;;;;3.56;100.00;102054.41;5091369;56;1145257;-67
2022/11/27 04:12:22;;;;;;;232.50;39.83;;;;;;;3.52;100.00;102058.84;5090609;56;1143116;-65
2022/11/27 04:17:28;;;;;;;107.97;34.40;;;;;;;3.49;100.00;102052.41;5091458;56;1143154;-64
2022/11/27 04:22:34;;;;;;;91.80;33.97;;;;;;;3.48;100.00;102053.30;5036693;56;1145337;-69
2022/11/27 04:27:40;;;;;;;87.63;30.60;;;;;;;3.48;100.00;102051.14;5120966;55;1143438;-65
2022/11/27 04:32:46;;;;;;;101.03;32.13;;;;;;;3.50;100.00;102044.12;5031127;57;1143189;-65
2022/11/27 04:37:52;;;;;;;93.30;33.50;;;;;;;3.52;100.00;102048.83;5033399;56;1145117;-68
2022/11/27 04:42:59;;;;;;;85.63;33.50;;;;;;;3.50;100.00;102035.82;5032312;57;1141085;-64
2022/11/27 04:48:05;;;;;;;73.70;31.03;;;;;;;3.51;100.00;102042.74;5033169;57;1141072;-66
2022/11/27 04:53:12;;;;;;;63.60;29.85;;;;;;;3.51;100.00;102032.28;5071493;56;1143168;-64
2022/11/27 04:58:18;;;;;;;67.65;28.92;;;;;;;3.52;100.00;102026.16;5120027;54;1142949;-65
2022/11/27 05:03:25;;;;;;;77.27;32.60;;;;;;;3.54;100.00;102026.12;5108551;55;1140866;-68
2022/11/27 05:08:32;;;;;;;58.60;28.20;;;;;;;3.57;100.00;102027.80;5057550;56;1141033;-66
2022/11/27 05:13:40;;;;;;;59.90;26.43;;;;;;;3.54;100.00;102039.20;5057389;56;1140785;-68
2022/11/27 05:18:47;;;;;;;58.53;27.97;;;;;;;3.52;100.00;102035.75;5075822;56;1143136;-66
2022/11/27 05:23:53;;;;;;;57.90;25.30;;;;;;;3.53;100.00;102038.78;4983476;56;1142965;-69
2022/11/27 05:28:58;;;;;;;62.87;26.27;;;;;;;3.56;100.00;102037.86;4978197;57;1143059;-63
2022/11/27 05:34:05;;;;;;;69.97;32.90;;;;;;;3.64;100.00;102022.84;4903681;57;1144761;-65
2022/11/27 05:39:11;;;;;;;95.83;29.07;;;;;;;3.64;100.00;102022.84;4973561;57;1140994;-69
2022/11/27 05:44:17;;;;;;;66.30;28.90;;;;;;;3.65;100.00;102034.59;4982785;57;1141106;-64
2022/11/27 05:49:23;;;;;;;76.37;33.90;;;;;;;3.61;100.00;102034.69;4983003;57;1140823;-69
2022/11/27 05:54:28;;;;;;;53.93;24.83;;;;;;;3.58;100.00;102032.14;4982913;57;1142840;-64
2022/11/27 05:59:35;;;;;;;57.63;26.77;;;;;;;3.63;100.00;102024.61;4969226;57;1142893;-64
2022/11/27 06:04:40;;;;;;;48.93;21.50;;;;;;;3.71;100.00;102034.41;4982409;57;1142945;-68
2022/11/27 06:09:47;;;;;;;53.40;23.63;;;;;;;3.71;100.00;102032.25;4982490;57;1142910;-65
2022/11/27 06:14:52;;;;;;;46.43;22.10;;;;;;;3.67;100.00;102036.69;4978307;57;1142888;-67
2022/11/27 06:19:59;;;;;;;44.43;21.30;;;;;;;3.67;100.00;102039.75;4981202;57;1143189;-66
2022/11/27 06:25:05;;;;;;;46.58;22.07;;;;;;;3.69;100.00;102043.20;4982930;56;1143192;-66
2022/11/27 06:30:12;;;;;;;52.00;23.33;;;;;;;3.69;100.00;102044.05;4902820;58;1142973;-64
2022/11/27 06:35:17;;;;;;;44.53;21.60;;;;;;;3.67;100.00;102043.23;4903179;58;1142891;-64
2022/11/27 06:40:23;;;;;;;45.87;22.10;;;;;;;3.68;100.00;102051.49;4821572;59;1143086;-64
2022/11/27 06:45:29;;;;;;;52.53;23.10;;;;;;;3.69;100.00;102051.91;4821638;59;1143223;-68
2022/11/27 06:50:34;;;;;;;49.65;21.05;;;;;;;3.73;100.00;102057.93;4821690;58;1143039;-66
2022/11/27 06:55:40;;;;;;;53.60;22.37;;;;;;;3.75;100.00;102061.38;4821923;58;1143228;-66
2022/11/27 07:00:46;;;;;;;76.90;26.37;;;;;;;3.79;100.00;102061.72;4821946;58;1143086;-67
2022/11/27 07:05:52;;;;;;;88.03;28.53;;;;;;;3.81;100.00;102061.23;4876397;58;1141090;-67
2022/11/27 07:11:17;;;;;;;50.23;22.33;;;;;;;3.84;100.00;102061.98;4930110;57;1140937;-65
2022/11/27 07:16:23;;;;;;;52.50;23.20;;;;;;;3.84;100.00;102061.98;5121133;56;1140945;-68
2022/11/27 07:21:29;;;;;;;75.67;28.40;;;;;;;3.89;100.00;102052.72;5121055;56;1143016;-68
2022/11/27 07:26:34;;;;;;;84.93;37.40;;;;;;;3.94;100.00;102055.23;5120548;56;1143080;-65
2022/11/27 07:31:40;;;;;;;49.13;23.13;;;;;;;3.95;100.00;102050.41;5113150;56;1143100;-67
2022/11/27 07:36:46;;;;;;;58.07;25.53;;;;;;;3.99;100.00;102046.34;5062795;56;1143098;-65
2022/11/27 07:41:52;;;;;;;61.60;24.60;;;;;;;4.09;100.00;102044.36;5036684;57;1143099;-66
2022/11/27 07:46:58;;;;;;;62.37;24.33;;;;;;;4.10;100.00;102048.70;5037030;56;1143044;-67
2022/11/27 07:52:04;;;;;;;66.97;24.87;;;;;;;4.06;100.00;102050.98;5002538;57;1140943;-66
2022/11/27 07:57:10;;;;;;;60.60;24.80;;;;;;;4.00;100.00;102050.68;5009308;57;1152594;-65
2022/11/27 08:02:16;;;;;;;52.08;22.35;;;;;;;4.05;100.00;102047.95;5022313;56;1143106;-66
2022/11/27 08:07:28;;;;;;;71.72;28.67;;;;;;;4.06;100.00;102046.61;4999304;56;1143724;-65
2022/11/27 08:12:34;;;;;;;51.80;26.37;;;;;;;4.09;100.00;102039.98;5088036;56;1143020;-64
2022/11/27 08:17:40;;;;;;;86.10;42.37;;;;;;;4.15;100.00;102048.11;5097283;56;1142990;-69
2022/11/27 08:22:47;;;;;;;74.10;37.43;;;;;;;4.18;100.00;102046.73;5085738;56;1143038;-65
2022/11/27 08:27:53;;;;;;;63.47;27.70;;;;;;;4.13;100.00;102050.77;5038124;56;1141126;-67
2022/11/27 08:32:59;;;;;;;56.27;25.87;;;;;;;4.13;100.00;102045.98;5020582;56;1140930;-64
2022/11/27 08:38:05;;;;;;;79.75;41.63;;;;;;;4.17;100.00;102051.55;5089571;56;1143057;-67
2022/11/27 08:43:11;;;;;;;54.73;26.80;;;;;;;4.18;100.00;102055.89;5104007;56;1143166;-67
2022/11/27 08:48:17;;;;;;;47.97;23.40;;;;;;;4.24;100.00;102055.29;5119238;56;1143004;-65
2022/11/27 08:53:23;;;;;;;42.03;19.37;;;;;;;4.30;100.00;102047.70;5119275;56;1142934;-67
2022/11/27 08:58:28;;;;;;;39.87;17.70;;;;;;;4.35;100.00;102058.92;5119202;56;1143028;-63
2022/11/27 09:03:34;;;;;;;40.13;19.27;;;;;;;4.34;100.00;102051.95;5103823;56;1143025;-67
2022/11/27 09:08:41;;;;;;;33.85;16.32;;;;;;;4.37;100.00;102056.27;5057341;56;1142970;-65
2022/11/27 09:13:47;;;;;;;37.87;16.13;;;;;;;4.40;100.00;102049.64;5082032;56;1143347;-68
2022/11/27 09:18:54;;;;;;;35.93;17.57;;;;;;;4.45;100.00;102052.97;5064185;56;1143016;-66
2022/11/27 09:24:02;;;;;;;64.43;26.80;;;;;;;4.53;100.00;102061.48;5121386;55;1143107;-66
2022/11/27 09:29:08;;;;;;;43.83;21.97;;;;;;;4.59;100.00;102054.30;5095560;56;1143179;-66
2022/11/27 09:34:14;;;;;;;80.25;30.50;;;;;;;4.64;100.00;102048.08;4968262;57;1143059;-68
2022/11/27 09:39:20;;;;;;;32.90;16.35;;;;;;;4.67;100.00;102041.44;5037047;56;1143037;-66
2022/11/27 09:44:38;;;;;;;48.70;21.50;;;;;;;4.68;100.00;102046.64;5120113;55;1142998;-66
2022/11/27 09:50:12;;;;;;;40.33;20.00;;;;;;;4.76;100.00;102042.02;5139789;55;1142945;-64
2022/11/27 09:55:46;;;;;;;65.97;30.77;;;;;;;4.76;100.00;102042.02;5171303;55;1143010;-68
2022/11/27 10:00:52;;;;;;;43.33;24.57;;;;;;;4.85;100.00;102036.98;5169746;55;1142986;-65
2022/11/27 10:06:38;;;;;;;124.00;37.60;;;;;;;4.85;100.00;102040.91;5121560;55;1143142;-68
2022/11/27 10:11:51;;;;;;;33.23;15.57;;;;;;;4.87;100.00;102033.41;5122447;55;1145035;-68
2022/11/27 10:17:04;;;;;;;41.98;22.30;;;;;;;4.88;100.00;102024.65;5037119;56;1143062;-67
2022/11/27 10:22:20;;;;;;;390.87;134.07;;;;;;;4.94;100.00;102018.34;5119198;56;1143212;-65
2022/11/27 10:27:50;;;;;;;189.63;59.90;;;;;;;4.97;100.00;102014.32;5164239;55;1147278;-64
2022/11/27 10:33:00;;;;;;;28.57;13.90;;;;;;;4.99;100.00;101992.85;4999835;56;1145459;-65
2022/11/27 10:38:11;;;;;;;38.43;15.10;;;;;;;5.18;100.00;101990.52;5007913;56;1143679;-66
2022/11/27 10:43:23;;;;;;;35.75;16.45;;;;;;;5.23;100.00;101989.90;5076607;55;1142947;-67
2022/11/27 10:48:29;;;;;;;17.82;9.03;;;;;;;5.26;100.00;101989.35;5162836;55;1143060;-68
2022/11/27 10:53:37;;;;;;;10.77;6.00;;;;;;;5.26;100.00;101987.19;5004606;56;1141250;-65
2022/11/27 10:59:09;;;;;;;53.73;18.67;;;;;;;5.25;100.00;101985.47;5003579;57;1140958;-65
2022/11/27 11:04:21;;;;;;;17.30;8.87;;;;;;;5.28;100.00;101988.85;4845406;59;1143183;-67
2022/11/27 11:09:29;;;;;;;;;;;;;;;5.31;100.00;101986.59;4920011;58;1141086;-68
2022/11/27 11:14:34;;;;;;;45.13;21.53;;;;;;;5.37;100.00;101982.89;4980712;58;976207;-68
2022/11/27 11:19:41;;;;;;;33.47;18.90;;;;;;;5.40;100.00;101969.23;4873073;59;1140944;-67
2022/11/27 11:24:54;;;;;;;103.17;47.13;;;;;;;5.44;100.00;101968.22;4963556;57;1141095;-68
2022/11/27 11:30:04;;;;;;;85.37;44.77;;;;;;;5.45;100.00;101966.45;4974180;57;1145021;-64
2022/11/27 11:35:31;;;;;;;36.00;17.67;;;;;;;5.48;100.00;101971.61;4924477;58;1143175;-63
2022/11/27 11:40:39;;;;;;;61.47;28.43;;;;;;;5.45;100.00;101965.15;4963056;57;1143083;-65
2022/11/27 11:45:48;;;;;;;53.37;23.67;;;;;;;5.49;100.00;101961.07;5074363;56;1142881;-67
2022/11/27 11:51:14;;;;;;;62.40;27.70;;;;;;;5.48;100.00;101962.42;5096850;56;1142909;-67
2022/11/27 11:56:41;;;;;;;54.20;23.83;;;;;;;5.48;100.00;101957.19;5118102;55;1142948;-63
2022/11/27 12:02:27;;;;;;;35.60;16.33;;;;;;;5.48;100.00;101955.87;4871618;58;1143127;-65
2022/11/27 12:08:02;;;;;;;29.30;13.87;;;;;;;5.56;100.00;101960.39;4782279;60;1143222;-66
2022/11/27 12:13:45;;;;;;;49.25;19.92;;;;;;;5.60;100.00;101956.31;4822001;59;1143094;-67
2022/11/27 12:19:17;;;;;;;35.47;15.00;;;;;;;5.62;100.00;101952.32;4857136;59;1143141;-64
2022/11/27 12:24:59;;;;;;;28.98;15.22;;;;;;;5.61;100.00;101947.98;4875071;58;1143107;-67
2022/11/27 12:30:15;;;;;;;28.77;15.37;;;;;;;5.58;100.00;101946.31;4896230;58;1142999;-68
2022/11/27 12:35:51;;;;;;;30.62;14.58;;;;;;;5.57;100.00;101935.41;4868884;59;1143023;-67
2022/11/27 12:41:46;;;;;;;58.60;28.17;;;;;;;5.62;100.00;101940.52;4957007;57;1142924;-67
2022/11/27 12:47:11;;;;;;;79.82;38.20;;;;;;;5.68;100.00;101938.97;5032273;57;1142885;-68
2022/11/27 12:52:34;;;;;;;35.30;16.23;;;;;;;5.72;100.00;101922.66;5012519;57;1143105;-69
2022/11/27 12:57:48;;;;;;;41.25;21.17;;;;;;;5.78;100.00;101927.71;5027700;57;1142985;-66
2022/11/27 13:03:16;;;;;;;112.20;54.55;;;;;;;5.75;100.00;101929.98;4921720;57;1140990;-66
2022/11/27 13:08:28;;;;;;;37.58;20.88;;;;;;;5.74;100.00;101923.02;4970535;57;1145110;-68
2022/11/27 13:13:47;;;;;;;28.23;15.72;;;;;;;5.72;100.00;101917.41;5039240;57;1143081;-66
2022/11/27 13:19:06;;;;;;;37.10;16.73;;;;;;;5.76;100.00;101922.52;5074225;56;1142956;-64
2022/11/27 13:24:14;;;;;;;63.07;27.77;;;;;;;5.78;100.00;101923.32;5106930;56;1143067;-67
2022/11/27 13:29:27;;;;;;;32.38;15.30;;;;;;;5.76;100.00;101909.84;5121798;56;1140873;-69
2022/11/27 13:34:42;;;;;;;39.73;19.98;;;;;;;5.73;100.00;101904.69;5122053;56;1143120;-68
2022/11/27 13:39:48;;;;;;;74.85;45.92;;;;;;;5.75;100.00;101905.05;5036731;57;1143264;-66
2022/11/27 13:45:11;;;;;;;94.57;45.17;;;;;;;5.79;100.00;101909.73;5037159;57;1142940;-64
2022/11/27 13:50:21;;;;;;;92.72;33.73;;;;;;;5.80;100.00;101901.81;5037527;57;1142954;-66
2022/11/27 13:55:34;;;;;;;132.63;50.95;;;;;;;5.83;100.00;101906.92;5045210;56;1143008;-67
2022/11/27 14:00:45;;;;;;;46.18;20.40;;;;;;;5.83;100.00;101901.67;5067368;56;1144971;-64
2022/11/27 14:05:51;;;;;;;55.43;27.20;;;;;;;5.75;100.00;101885.36;5037629;56;1140992;-65
2022/11/27 14:11:10;;;;;;;54.37;25.90;;;;;;;5.69;100.00;101888.19;5037410;57;1143025;-66
2022/11/27 14:16:28;;;;;;;36.60;16.87;;;;;;;5.66;100.00;101885.66;5037581;57;1142944;-65
2022/11/27 14:21:40;;;;;;;82.43;36.53;;;;;;;5.64;100.00;101882.27;5037026;57;1142950;-65
2022/11/27 14:26:46;;;;;;;31.27;15.53;;;;;;;5.61;100.00;101877.13;5036162;56;1143165;-68
2022/11/27 14:32:00;;;;;;;37.70;19.17;;;;;;;5.56;100.00;101874.64;5037698;56;1140906;-65
2022/11/27 14:37:06;;;;;;;44.75;19.87;;;;;;;5.51;100.00;101867.84;4997737;56;1143255;-67
2022/11/27 14:42:27;;;;;;;32.50;15.23;;;;;;;5.43;100.00;101864.64;4952514;56;1143092;-67
2022/11/27 14:47:34;;;;;;;47.10;22.83;;;;;;;5.36;100.00;101855.25;4992059;56;1143002;-64
2022/11/27 14:52:41;;;;;;;48.30;24.60;;;;;;;5.33;100.00;101855.38;5037459;56;1143028;-68
2022/11/27 14:57:49;;;;;;;37.30;16.30;;;;;;;5.29;100.00;101851.55;4994715;56;1142975;-66
2022/11/27 15:02:55;;;;;;;56.13;26.90;;;;;;;5.23;100.00;101847.81;5029965;57;1141091;-68
2022/11/27 15:08:03;;;;;;;86.30;38.47;;;;;;;5.21;100.00;101848.77;5034939;57;1141044;-66
2022/11/27 15:13:21;;;;;;;45.77;22.10;;;;;;;5.21;100.00;101835.20;5037123;57;1143280;-65
2022/11/27 15:18:29;;;;;;;82.65;35.68;;;;;;;5.19;100.00;101831.80;5049777;56;1142997;-64
2022/11/27 15:23:37;;;;;;;67.50;28.60;;;;;;;5.18;100.00;101844.52;5018304;57;1143059;-66
2022/11/27 15:28:56;;;;;;;102.30;39.43;;;;;;;5.15;100.00;101852.47;5030914;57;1140864;-63
2022/11/27 15:34:21;;;;;;;106.53;45.73;;;;;;;5.03;100.00;101853.34;5102889;56;1143069;-66
2022/11/27 15:39:31;;;;;;;129.68;49.20;;;;;;;4.97;100.00;101845.67;5117686;56;1143120;-65
2022/11/27 15:44:42;;;;;;;134.20;53.83;;;;;;;4.98;100.00;101853.48;5118033;56;1145092;-66
2022/11/27 15:49:44;;;;;;;153.53;63.47;;;;;;;4.99;100.00;101853.89;5082484;56;1145090;-63
2022/11/27 15:54:51;;;;;;;87.07;43.17;;;;;;;4.94;100.00;101853.17;5078184;55;1145437;-67
2022/11/27 15:59:56;;;;;;;108.87;51.47;;;;;;;4.90;100.00;101857.66;5038338;56;1140952;-66
2022/11/27 16:05:05;;;;;;;131.17;57.80;;;;;;;4.86;100.00;101856.06;5118467;56;1143093;-65
2022/11/27 16:10:11;;;;;;;119.40;50.80;;;;;;;4.87;100.00;101860.86;5118418;56;1143077;-66
2022/11/27 16:15:17;;;;;;;92.10;41.50;;;;;;;4.79;100.00;101862.40;5115443;56;1145136;-64
2022/11/27 16:20:23;;;;;;;317.05;121.30;;;;;;;4.74;100.00;101845.09;5119193;55;1142905;-66
2022/11/27 16:25:28;;;;;;;243.27;97.57;;;;;;;4.74;100.00;101826.75;5018053;57;1147411;-66
2022/11/27 16:30:34;;;;;;;298.30;110.53;;;;;;;4.67;100.00;101816.94;5120785;56;1143200;-67
2022/11/27 16:35:40;;;;;;;268.40;106.13;;;;;;;4.67;100.00;101816.08;5120178;56;1147476;-64
2022/11/27 16:40:46;;;;;;;220.00;96.67;;;;;;;4.68;100.00;101815.17;5120249;56;1147260;-69
2022/11/27 16:45:51;;;;;;;156.47;68.30;;;;;;;4.63;100.00;101803.98;4980693;56;1142936;-65
2022/11/27 16:51:04;;;;;;;214.80;85.40;;;;;;;4.54;100.00;101807.31;4951785;57;1142940;-64
2022/11/27 16:56:13;;;;;;;313.50;119.97;;;;;;;4.36;100.00;101791.31;4974045;57;1142918;-64
2022/11/27 17:01:22;;;;;;;227.97;99.42;;;;;;;4.27;100.00;101798.16;5037249;57;1147193;-68
2022/11/27 17:06:34;;;;;;;181.80;80.03;;;;;;;4.28;100.00;101804.63;5036524;57;1145116;-66
2022/11/27 17:11:43;;;;;;;173.97;77.40;;;;;;;4.32;100.00;101802.33;5037162;57;1145181;-69
2022/11/27 17:16:49;;;;;;;129.97;56.10;;;;;;;4.33;100.00;101792.27;5064192;56;1143016;-69
2022/11/27 17:21:55;;;;;;;345.80;141.60;;;;;;;4.27;100.00;101791.62;5121020;56;1142887;-65
2022/11/27 17:27:01;;;;;;;248.83;105.53;;;;;;;4.13;100.00;101792.87;4999968;57;1145014;-69
2022/11/27 17:32:11;;;;;;;550.33;191.50;;;;;;;4.13;100.00;101785.47;5036470;57;1147135;-68
2022/11/27 17:37:17;;;;;;;221.33;81.77;;;;;;;4.07;100.00;101780.44;4996890;57;1147276;-68
2022/11/27 17:42:23;;;;;;;213.85;84.05;;;;;;;4.08;100.00;101763.38;5032430;57;1143101;-70
2022/11/27 17:47:29;;;;;;;158.63;79.10;;;;;;;4.02;100.00;101771.41;4956438;55;1143077;-70
2022/11/27 17:52:35;;;;;;;104.73;48.70;;;;;;;3.88;100.00;101763.98;4975424;56;1142940;-68
2022/11/27 17:57:41;;;;;;;82.60;37.93;;;;;;;3.79;100.00;101769.95;4962754;56;1143314;-71
2022/11/27 18:02:48;;;;;;;76.55;35.15;;;;;;;3.67;100.00;101775.06;4962228;57;1143028;-68
2022/11/27 18:07:54;;;;;;;77.12;34.33;;;;;;;3.62;100.00;101761.73;5008226;56;1143011;-68
2022/11/27 18:13:00;;;;;;;80.27;40.30;;;;;;;3.49;100.00;101759.92;5008207;56;1141307;-70
2022/11/27 18:18:07;;;;;;;86.57;39.63;;;;;;;3.37;100.00;101764.17;5012954;56;1140863;-67
2022/11/27 18:23:14;;;;;;;96.40;35.17;;;;;;;3.28;100.00;101755.28;5025424;57;1140893;-68
2022/11/27 18:28:20;;;;;;;86.92;28.57;;;;;;;3.20;100.00;101763.35;5023299;57;1140982;-68
2022/11/27 18:33:26;;;;;;;90.13;27.17;;;;;;;3.09;100.00;101755.78;5037886;57;1141278;-67
2022/11/27 18:38:34;;;;;;;160.80;32.80;;;;;;;3.09;100.00;101760.15;4997569;57;1143139;-69
2022/11/27 18:43:40;;;;;;;190.80;34.43;;;;;;;3.07;100.00;101755.41;4920112;57;1143107;-69
2022/11/27 18:48:50;;;;;;;715.47;342.53;;;;;;;3.03;100.00;101755.10;5002732;56;1143100;-71
2022/11/27 18:53:56;;;;;;;219.17;69.33;;;;;;;3.01;100.00;101766.04;5086551;56;1144988;-70
2022/11/27 18:59:03;;;;;;;140.70;44.63;;;;;;;2.99;100.00;101769.14;5074624;56;1143103;-67
2022/11/27 19:04:11;;;;;;;218.60;57.57;;;;;;;3.01;100.00;101772.13;4979815;57;1145109;-69
2022/11/27 19:09:21;;;;;;;183.30;44.90;;;;;;;2.96;100.00;101775.75;5050983;56;1143075;-68
2022/11/27 19:14:27;;;;;;;107.87;34.55;;;;;;;2.85;100.00;101775.17;5052409;56;1142955;-68
2022/11/27 19:19:32;;;;;;;184.87;50.30;;;;;;;2.77;100.00;101765.77;5055965;57;1143047;-69
2022/11/27 19:24:38;;;;;;;89.40;34.83;;;;;;;2.75;100.00;101763.63;4995854;57;1143102;-70
2022/11/27 19:29:44;;;;;;;146.00;41.57;;;;;;;2.78;100.00;101756.17;4988629;57;1140995;-66
2022/11/27 19:34:51;;;;;;;206.97;54.53;;;;;;;2.81;100.00;101743.89;5048978;56;1143057;-69
2022/11/27 19:39:56;;;;;;;132.50;48.17;;;;;;;2.83;100.00;101748.64;5090963;57;1142975;-67
2022/11/27 19:45:02;;;;;;;263.53;71.10;;;;;;;2.88;100.00;101738.53;5090422;56;1143078;-67
2022/11/27 19:50:08;;;;;;;219.93;77.03;;;;;;;2.89;100.00;101730.65;5087324;56;1142999;-70
2022/11/27 19:55:15;;;;;;;287.30;82.10;;;;;;;2.91;100.00;101730.58;5089959;56;1145323;-69
2022/11/27 20:00:21;;;;;;;217.93;70.90;;;;;;;2.92;100.00;101724.45;5090534;56;1152645;-66
2022/11/27 20:05:27;;;;;;;118.95;45.40;;;;;;;2.90;100.00;101721.06;5057020;56;1143124;-68
2022/11/27 20:10:33;;;;;;;93.58;40.33;;;;;;;2.85;100.00;101725.09;5121016;56;1143161;-67
2022/11/27 20:15:40;;;;;;;72.40;33.10;;;;;;;2.83;100.00;101722.96;5121301;56;1140888;-65
2022/11/27 20:20:47;;;;;;;66.57;31.47;;;;;;;2.81;100.00;101719.53;5062928;56;1140943;-67
2022/11/27 20:25:53;;;;;;;97.27;38.80;;;;;;;2.80;100.00;101716.50;5043679;55;1140883;-67
2022/11/27 20:31:00;;;;;;;87.27;41.80;;;;;;;2.80;100.00;101721.73;5037398;57;1141406;-68
2022/11/27 20:36:15;;;;;;;113.07;42.53;;;;;;;2.79;100.00;101712.17;5037765;57;1140823;-66
2022/11/27 20:41:23;;;;;;;83.80;39.70;;;;;;;2.75;100.00;101706.16;5036926;56;1143306;-68
2022/11/27 20:46:29;;;;;;;101.17;39.97;;;;;;;2.68;100.00;101703.77;5037707;56;1140842;-66
2022/11/27 20:51:35;;;;;;;90.00;39.95;;;;;;;2.68;100.00;101700.71;5046185;55;1142924;-67
2022/11/27 20:56:46;;;;;;;112.88;38.42;;;;;;;2.68;100.00;101695.48;5042337;56;1141002;-70
2022/11/27 21:01:51;;;;;;;92.87;40.27;;;;;;;2.64;100.00;101689.06;5120663;55;1142996;-65
2022/11/27 21:06:59;;;;;;;71.60;34.57;;;;;;;2.56;100.00;101685.37;5123908;56;1140773;-66
2022/11/27 21:12:05;;;;;;;81.60;35.00;;;;;;;2.55;100.00;101688.88;5109556;56;1140811;-67
2022/11/27 21:17:11;;;;;;;91.57;34.97;;;;;;;2.60;100.00;101692.20;5121787;55;1141313;-65
2022/11/27 21:22:16;;;;;;;82.73;37.77;;;;;;;2.65;100.00;101690.34;5122123;55;1140955;-69
2022/11/27 21:27:22;;;;;;;75.90;34.87;;;;;;;2.65;100.00;101676.42;5066509;56;1141291;-68
2022/11/27 21:32:28;;;;;;;85.70;38.10;;;;;;;2.66;100.00;101676.38;5102284;56;1143232;-69
2022/11/27 21:37:34;;;;;;;113.80;43.83;;;;;;;2.64;100.00;101671.64;5108855;55;1140970;-70
2022/11/27 21:42:40;;;;;;;106.10;40.90;;;;;;;2.60;100.00;101673.92;5122155;56;1143055;-65
2022/11/27 21:47:46;;;;;;;77.47;35.30;;;;;;;2.58;100.00;101674.88;5057783;56;1142869;-70
2022/11/27 21:52:53;;;;;;;77.77;35.10;;;;;;;2.57;100.00;101670.11;5027359;56;1140826;-66
2022/11/27 21:57:59;;;;;;;93.73;41.90;;;;;;;2.57;100.00;101667.50;5007526;57;1143195;-68
2022/11/27 22:03:05;;;;;;;92.63;42.77;;;;;;;2.59;100.00;101660.93;5009678;57;1141005;-68
2022/11/27 22:08:12;;;;;;;97.25;38.65;;;;;;;2.53;100.00;101654.10;5037560;56;1141092;-67
2022/11/27 22:13:18;;;;;;;81.00;38.47;;;;;;;2.51;100.00;101655.03;5037524;57;1140744;-65
2022/11/27 22:18:24;;;;;;;82.00;37.30;;;;;;;2.51;100.00;101655.03;5037628;56;1140832;-65
2022/11/27 22:23:31;;;;;;;72.53;37.20;;;;;;;2.53;100.00;101656.72;5048104;57;1142979;-69
2022/11/27 22:28:38;;;;;;;84.24;36.34;;;;;;;2.55;100.00;101647.09;5025091;57;1140966;-68
2022/11/27 22:33:45;;;;;;;75.92;35.45;;;;;;;2.46;100.00;101642.95;5034048;56;1141156;-65
2022/11/27 22:38:53;;;;;;;72.62;34.15;;;;;;;2.40;100.00;101646.19;5019718;56;1141178;-68
2022/11/27 22:44:01;;;;;;;80.87;35.33;;;;;;;2.31;100.00;101641.18;5057040;56;1140982;-67
2022/11/27 22:49:07;;;;;;;76.50;35.97;;;;;;;2.28;100.00;101638.23;5119342;56;1141090;-68
2022/11/27 22:54:15;;;;;;;84.10;34.07;;;;;;;2.29;100.00;101641.22;5119465;56;1141094;-66